createdAt,value
2022-10-17T00:01:49.860Z,4.57
2022-10-17T00:04:18.485Z,6.77
2022-10-17T00:06:47.108Z,5.60
2022-10-17T00:09:15.716Z,5.90
2022-10-17T00:11:44.325Z,6.70
2022-10-17T00:14:12.987Z,5.13
2022-10-17T00:16:43.024Z,7.10
2022-10-17T00:19:11.658Z,5.67
2022-10-17T00:21:40.307Z,8.30
2022-10-17T00:24:09.099Z,4.33
2022-10-17T00:26:37.727Z,5.70
2022-10-17T00:29:06.825Z,4.90
2022-10-17T00:31:36.080Z,7.60
2022-10-17T00:34:06.112Z,3.53
2022-10-17T00:36:35.036Z,3.60
2022-10-17T00:39:04.099Z,4.50
2022-10-17T00:41:35.741Z,4.80
2022-10-17T00:45:00.082Z,7.63
2022-10-17T00:47:30.170Z,4.80
2022-10-17T00:52:35.926Z,6.47
2022-10-17T00:55:13.442Z,7.10
2022-10-17T00:57:46.055Z,2.83
2022-10-17T01:00:17.705Z,7.70
2022-10-17T01:02:46.852Z,4.77
2022-10-17T01:05:19.648Z,5.07
2022-10-17T01:07:52.104Z,5.50
2022-10-17T01:13:13.489Z,7.20
2022-10-17T01:16:01.025Z,9.17
2022-10-17T01:18:46.100Z,8.17
2022-10-17T01:21:34.856Z,8.40
2022-10-17T01:25:07.500Z,13.07
2022-10-17T01:27:53.783Z,7.77
2022-10-17T01:31:00.579Z,6.57
2022-10-17T01:33:49.633Z,3.80
2022-10-17T01:36:38.900Z,8.60
2022-10-17T01:39:19.168Z,6.87
2022-10-17T01:41:59.222Z,4.80
2022-10-17T01:44:38.261Z,5.30
2022-10-17T01:47:16.910Z,6.70
2022-10-17T01:49:50.680Z,3.13
2022-10-17T01:52:26.551Z,8.13
2022-10-17T01:55:04.655Z,8.70
2022-10-17T01:57:39.204Z,5.40
2022-10-17T02:00:16.551Z,6.93
2022-10-17T02:02:51.105Z,7.10
2022-10-17T02:05:25.771Z,5.60
2022-10-17T02:07:54.429Z,4.93
2022-10-17T02:10:34.318Z,2.17
2022-10-17T02:13:10.878Z,6.30
2022-10-17T02:16:07.577Z,3.70
2022-10-17T02:19:07.493Z,6.93
2022-10-17T02:21:51.835Z,6.40
2022-10-17T02:24:39.098Z,3.67
2022-10-17T02:27:15.051Z,5.23
2022-10-17T02:29:50.345Z,6.90
2022-10-17T02:32:26.327Z,5.80
2022-10-17T02:35:01.948Z,4.77
2022-10-17T02:37:33.187Z,5.87
2022-10-17T02:40:04.501Z,7.13
2022-10-17T02:42:35.149Z,5.40
2022-10-17T02:45:08.731Z,4.70
2022-10-17T02:47:49.659Z,4.07
2022-10-17T02:50:24.566Z,7.07
2022-10-17T02:53:00.207Z,7.40
2022-10-17T02:55:34.530Z,4.53
2022-10-17T02:58:11.895Z,4.90
2022-10-17T03:00:42.380Z,4.53
2022-10-17T03:03:22.900Z,7.20
2022-10-17T03:05:54.983Z,6.07
2022-10-17T03:08:26.709Z,5.00
2022-10-17T03:10:55.633Z,6.10
2022-10-17T03:13:24.661Z,5.07
2022-10-17T03:15:53.545Z,5.13
2022-10-17T03:18:22.451Z,7.17
2022-10-17T03:20:55.754Z,4.90
2022-10-17T03:23:25.395Z,5.97
2022-10-17T03:25:54.582Z,3.40
2022-10-17T03:28:23.221Z,7.07
2022-10-17T03:30:51.963Z,4.80
2022-10-17T03:33:20.557Z,5.50
2022-10-17T03:38:21.047Z,3.47
2022-10-17T03:40:56.885Z,4.93
2022-10-17T03:43:25.594Z,9.30
2022-10-17T03:45:54.241Z,4.60
2022-10-17T03:48:22.929Z,4.73
2022-10-17T03:50:52.094Z,4.07
2022-10-17T03:53:22.257Z,9.70
2022-10-17T03:55:50.970Z,6.17
2022-10-17T03:58:20.312Z,5.77
2022-10-17T04:00:49.347Z,4.67
2022-10-17T04:03:18.240Z,4.33
2022-10-17T04:05:46.842Z,5.87
2022-10-17T04:08:15.493Z,6.87
2022-10-17T04:11:08.497Z,9.23
2022-10-17T04:13:37.730Z,5.23
2022-10-17T04:16:11.779Z,5.97
2022-10-17T04:18:46.552Z,5.73
2022-10-17T04:21:15.631Z,4.23
2022-10-17T04:23:44.179Z,7.33
2022-10-17T04:26:26.389Z,6.73
2022-10-17T04:28:55.028Z,17.23
2022-10-17T04:31:23.986Z,7.40
2022-10-17T04:34:16.595Z,4.83
2022-10-17T04:36:45.865Z,5.60
2022-10-17T04:41:45.061Z,4.53
2022-10-17T04:44:14.405Z,3.17
2022-10-17T04:46:48.723Z,6.90
2022-10-17T04:49:17.423Z,6.50
2022-10-17T04:51:49.620Z,4.80
2022-10-17T04:54:22.412Z,3.70
2022-10-17T04:56:58.528Z,5.63
2022-10-17T04:59:28.160Z,9.57
2022-10-17T05:02:07.361Z,8.47
2022-10-17T05:04:37.827Z,14.33
2022-10-17T05:07:07.022Z,5.43
2022-10-17T05:09:47.459Z,12.40
2022-10-17T05:12:18.793Z,9.63
2022-10-17T05:14:48.413Z,5.17
2022-10-17T05:17:17.470Z,12.10
2022-10-17T05:19:46.430Z,6.57
2022-10-17T05:22:16.342Z,5.10
2022-10-17T05:24:45.848Z,7.07
2022-10-17T05:27:15.375Z,15.80
2022-10-17T05:29:45.749Z,8.83
2022-10-17T05:32:35.853Z,9.70
2022-10-17T05:35:05.452Z,9.40
2022-10-17T05:37:34.750Z,10.50
2022-10-17T05:40:05.515Z,6.37
2022-10-17T05:42:34.258Z,7.97
2022-10-17T05:45:05.786Z,8.40
2022-10-17T05:47:34.358Z,7.73
2022-10-17T05:50:03.085Z,13.33
2022-10-17T05:52:45.174Z,6.93
2022-10-17T05:55:17.979Z,12.73
2022-10-17T05:57:46.872Z,9.17
2022-10-17T06:00:20.908Z,9.17
2022-10-17T06:02:57.492Z,12.40
2022-10-17T06:05:26.475Z,13.33
2022-10-17T06:07:58.254Z,8.87
2022-10-17T06:10:31.027Z,10.67
2022-10-17T06:13:00.824Z,7.37
2022-10-17T06:15:31.113Z,4.90
2022-10-17T06:18:05.051Z,9.63
2022-10-17T06:20:35.332Z,9.73
2022-10-17T06:23:04.905Z,5.83
2022-10-17T06:25:48.287Z,6.10
2022-10-17T06:28:17.045Z,6.10
2022-10-17T06:30:47.164Z,11.70
2022-10-17T06:33:16.833Z,9.37
2022-10-17T06:35:51.680Z,10.23
2022-10-17T06:38:20.965Z,8.30
2022-10-17T06:40:51.990Z,7.47
2022-10-17T06:43:26.941Z,10.03
2022-10-17T06:46:01.734Z,8.40
2022-10-17T06:48:40.151Z,6.57
2022-10-17T06:51:41.106Z,8.57
2022-10-17T06:54:12.282Z,14.33
2022-10-17T06:57:00.799Z,8.07
2022-10-17T06:59:43.346Z,9.07
2022-10-17T07:02:20.509Z,10.97
2022-10-17T07:04:49.164Z,9.20
2022-10-17T07:07:17.740Z,9.10
2022-10-17T07:09:46.693Z,6.73
2022-10-17T07:12:17.412Z,12.57
2022-10-17T07:14:47.449Z,11.03
2022-10-17T07:17:16.580Z,13.63
2022-10-17T07:19:47.774Z,14.63
2022-10-17T07:22:16.820Z,16.67
2022-10-17T07:27:29.886Z,27.13
2022-10-17T07:30:00.776Z,17.23
2022-10-17T07:32:36.472Z,13.90
2022-10-17T07:35:08.094Z,16.23
2022-10-17T07:37:38.373Z,12.37
2022-10-17T07:40:10.111Z,17.07
2022-10-17T07:45:09.149Z,18.13
2022-10-17T07:47:38.936Z,9.77
2022-10-17T07:50:11.981Z,9.80
2022-10-17T07:52:42.790Z,16.30
2022-10-17T07:55:11.690Z,14.93
2022-10-17T07:57:40.355Z,11.13
2022-10-17T08:00:10.804Z,9.63
2022-10-17T08:02:43.016Z,12.23
2022-10-17T08:05:13.053Z,9.17
2022-10-17T08:07:41.991Z,8.73
2022-10-17T08:10:13.426Z,9.87
2022-10-17T08:12:42.528Z,12.53
2022-10-17T08:15:12.680Z,12.20
2022-10-17T08:17:41.459Z,9.93
2022-10-17T08:20:13.465Z,10.13
2022-10-17T08:22:42.241Z,14.07
2022-10-17T08:25:11.661Z,10.17
2022-10-17T08:27:40.388Z,9.80
2022-10-17T08:30:10.748Z,9.50
2022-10-17T08:32:39.389Z,10.60
2022-10-17T08:35:09.211Z,8.30
2022-10-17T08:37:39.494Z,12.33
2022-10-17T08:40:16.023Z,12.63
2022-10-17T08:43:08.281Z,10.43
2022-10-17T08:45:47.221Z,10.60
2022-10-17T08:48:21.093Z,10.20
2022-10-17T08:50:54.792Z,10.63
2022-10-17T08:53:34.167Z,12.13
2022-10-17T08:56:19.602Z,13.43
2022-10-17T08:58:54.216Z,9.77
2022-10-17T09:01:36.155Z,10.13
2022-10-17T09:04:44.929Z,15.23
2022-10-17T09:07:23.611Z,13.03
2022-10-17T09:10:06.190Z,10.13
2022-10-17T09:12:48.545Z,10.30
2022-10-17T09:15:49.350Z,16.80
2022-10-17T09:18:25.126Z,10.50
2022-10-17T09:20:58.097Z,8.83
2022-10-17T09:23:31.692Z,11.53
2022-10-17T09:26:04.444Z,7.93
2022-10-17T09:28:37.649Z,8.97
2022-10-17T09:31:13.157Z,9.30
2022-10-17T09:34:00.217Z,8.93
2022-10-17T09:36:33.801Z,12.67
2022-10-17T09:39:06.925Z,7.40
2022-10-17T09:41:46.617Z,12.68
2022-10-17T09:44:21.750Z,8.98
2022-10-17T09:47:24.070Z,9.20
2022-10-17T09:49:53.577Z,12.75
2022-10-17T09:52:29.667Z,12.27
2022-10-17T09:55:06.622Z,7.30
2022-10-17T09:57:57.077Z,8.55
2022-10-17T10:00:30.237Z,7.07
2022-10-17T10:03:21.923Z,5.85
2022-10-17T10:06:03.602Z,4.90
2022-10-17T10:08:35.864Z,8.98
2022-10-17T10:11:13.504Z,8.43
2022-10-17T10:13:45.404Z,3.97
2022-10-17T10:16:25.535Z,3.40
2022-10-17T10:18:54.442Z,7.05
2022-10-17T10:21:27.325Z,6.25
2022-10-17T10:24:13.573Z,5.30
2022-10-17T10:26:46.023Z,8.50
2022-10-17T10:29:31.320Z,5.70
2022-10-17T10:32:11.488Z,5.55
2022-10-17T10:34:48.638Z,4.80
2022-10-17T10:37:22.547Z,5.00
2022-10-17T10:39:54.439Z,3.75
2022-10-17T10:42:29.813Z,7.50
2022-10-17T10:45:23.700Z,5.75
2022-10-17T10:48:01.069Z,10.05
2022-10-17T10:50:40.645Z,4.38
2022-10-17T10:53:35.246Z,5.47
2022-10-17T10:56:12.371Z,3.97
2022-10-17T10:58:54.570Z,4.00
2022-10-17T11:01:35.474Z,3.85
2022-10-17T11:04:22.615Z,3.72
2022-10-17T11:07:03.314Z,4.50
2022-10-17T11:09:47.604Z,8.35
2022-10-17T11:12:25.815Z,4.07
2022-10-17T11:15:04.910Z,3.03
2022-10-17T11:17:46.998Z,7.28
2022-10-17T11:20:28.386Z,3.17
2022-10-17T11:23:20.006Z,8.05
2022-10-17T11:25:53.015Z,5.90
2022-10-17T11:28:25.928Z,8.02
2022-10-17T11:31:05.797Z,8.88
2022-10-17T11:33:47.373Z,5.55
2022-10-17T11:36:19.638Z,8.40
2022-10-17T11:38:54.255Z,3.13
2022-10-17T11:41:43.164Z,5.50
2022-10-17T11:44:22.550Z,8.25
2022-10-17T11:46:58.669Z,10.02
2022-10-17T11:49:40.570Z,5.03
2022-10-17T11:52:51.426Z,5.57
2022-10-17T11:55:24.552Z,3.95
2022-10-17T11:58:18.924Z,3.95
2022-10-17T12:01:08.751Z,3.55
2022-10-17T12:03:54.623Z,9.45
2022-10-17T12:06:51.256Z,10.02
2022-10-17T12:09:36.478Z,3.83
2022-10-17T12:12:05.943Z,4.03
2022-10-17T12:14:45.165Z,5.47
2022-10-17T12:17:42.358Z,6.47
2022-10-17T12:20:39.103Z,5.22
2022-10-17T12:23:29.666Z,7.93
2022-10-17T12:26:04.742Z,6.13
2022-10-17T12:28:42.462Z,6.72
2022-10-17T12:31:29.753Z,5.57
2022-10-17T12:34:03.704Z,6.55
2022-10-17T12:36:42.261Z,5.85
2022-10-17T12:39:52.516Z,4.10
2022-10-17T12:42:51.301Z,7.55
2022-10-17T12:45:50.113Z,10.23
2022-10-17T12:49:21.635Z,8.45
2022-10-17T12:52:26.061Z,7.88
2022-10-17T12:55:17.649Z,5.82
2022-10-17T12:57:56.859Z,10.52
2022-10-17T13:00:36.047Z,8.07
2022-10-17T13:03:14.143Z,8.70
2022-10-17T13:05:49.926Z,13.00
2022-10-17T13:08:24.365Z,12.27
2022-10-17T13:10:56.746Z,18.10
2022-10-17T13:13:39.178Z,16.98
2022-10-17T13:16:09.815Z,13.90
2022-10-17T13:18:38.507Z,16.13
2022-10-17T13:21:17.229Z,17.02
2022-10-17T13:23:51.187Z,22.30
2022-10-17T13:26:24.161Z,14.73
2022-10-17T13:31:45.126Z,18.50
2022-10-17T13:34:21.587Z,15.00
2022-10-17T13:36:53.807Z,13.88
2022-10-17T13:39:38.553Z,14.75
2022-10-17T13:42:32.284Z,16.27
2022-10-17T13:45:01.508Z,14.80
2022-10-17T13:47:37.870Z,18.80
2022-10-17T13:50:26.493Z,15.73
2022-10-17T13:53:30.486Z,10.00
2022-10-17T13:56:26.491Z,14.15
2022-10-17T13:58:57.431Z,14.63
2022-10-17T14:01:28.733Z,12.07
2022-10-17T14:04:08.481Z,12.68
2022-10-17T14:06:46.404Z,18.88
2022-10-17T14:09:25.531Z,11.38
2022-10-17T14:12:05.107Z,15.23
2022-10-17T14:14:58.084Z,13.73
2022-10-17T14:17:29.432Z,18.15
2022-10-17T14:23:20.849Z,12.07
2022-10-17T14:25:42.652Z,15.90
2022-10-17T14:28:18.496Z,17.83
2022-10-17T14:30:57.219Z,13.77
2022-10-17T14:33:31.365Z,14.73
2022-10-17T14:36:03.053Z,16.55
2022-10-17T14:38:32.985Z,13.80
2022-10-17T14:41:37.814Z,12.95
2022-10-17T14:44:00.338Z,11.95
2022-10-17T14:46:30.869Z,13.70
2022-10-17T14:49:07.498Z,13.63
2022-10-17T14:51:50.247Z,13.23
2022-10-17T14:54:30.402Z,14.95
2022-10-17T14:56:58.986Z,10.13
2022-10-17T14:59:52.682Z,12.88
2022-10-17T15:02:17.829Z,12.13
2022-10-17T15:04:46.493Z,19.20
2022-10-17T15:07:18.160Z,16.88
2022-10-17T15:09:49.663Z,18.10
2022-10-17T15:12:25.958Z,14.95
2022-10-17T15:14:55.283Z,17.58
2022-10-17T15:17:27.897Z,15.20
2022-10-17T15:19:58.041Z,19.27
2022-10-17T15:22:27.590Z,18.47
2022-10-17T15:24:58.233Z,15.95
2022-10-17T15:27:27.761Z,34.17
2022-10-17T15:29:56.717Z,21.45
2022-10-17T15:32:26.902Z,16.60
2022-10-17T15:34:56.010Z,17.50
2022-10-17T15:37:26.870Z,19.67
2022-10-17T15:39:57.537Z,23.00
2022-10-17T15:42:31.366Z,21.20
2022-10-17T15:45:00.473Z,24.47
2022-10-17T15:47:34.672Z,22.52
2022-10-17T15:50:03.931Z,23.42
2022-10-17T15:52:33.117Z,26.57
2022-10-17T15:55:04.383Z,27.38
2022-10-17T15:57:39.515Z,27.37
2022-10-17T16:00:17.474Z,24.60
2022-10-17T16:02:49.793Z,28.67
2022-10-17T16:05:23.801Z,29.80
2022-10-17T16:07:53.879Z,32.93
2022-10-17T16:10:26.041Z,39.63
2022-10-17T16:12:55.651Z,39.90
2022-10-17T16:15:26.724Z,39.73
2022-10-17T16:18:01.663Z,31.57
2022-10-17T16:20:33.195Z,28.40
2022-10-17T16:23:04.984Z,28.53
2022-10-17T16:25:34.519Z,33.23
2022-10-17T16:28:04.517Z,38.30
2022-10-17T16:30:35.159Z,31.10
2022-10-17T16:33:06.630Z,34.50
2022-10-17T16:35:37.558Z,37.93
2022-10-17T16:38:08.401Z,39.87
2022-10-17T16:40:41.026Z,34.47
2022-10-17T16:43:13.610Z,37.77
2022-10-17T16:45:42.980Z,43.20
2022-10-17T16:48:13.624Z,36.60
2022-10-17T16:50:42.833Z,41.37
2022-10-17T16:53:11.733Z,48.00
2022-10-17T16:55:40.762Z,35.13
2022-10-17T16:58:10.026Z,38.17
2022-10-17T17:00:41.062Z,38.90
2022-10-17T17:03:10.153Z,30.23
2022-10-17T17:05:43.639Z,30.30
2022-10-17T17:08:12.755Z,32.70
2022-10-17T17:10:46.876Z,33.87
2022-10-17T17:13:17.126Z,34.30
2022-10-17T17:15:46.366Z,42.07
2022-10-17T17:18:16.201Z,37.00
2022-10-17T17:20:46.908Z,36.53
2022-10-17T17:23:18.350Z,41.17
2022-10-17T17:25:47.402Z,36.13
2022-10-17T17:28:16.112Z,36.60
2022-10-17T17:30:46.936Z,39.77
2022-10-17T17:33:15.696Z,36.27
2022-10-17T17:35:48.416Z,37.37
2022-10-17T17:38:17.525Z,38.83
2022-10-17T17:40:50.775Z,34.07
2022-10-17T17:43:20.647Z,39.20
2022-10-17T17:45:49.605Z,37.67
2022-10-17T17:48:18.950Z,40.90
2022-10-17T17:50:49.907Z,35.47
2022-10-17T17:53:22.082Z,38.27
2022-10-17T17:56:03.434Z,37.37
2022-10-17T17:58:32.345Z,36.07
2022-10-17T18:01:02.077Z,32.53
2022-10-17T18:03:31.472Z,35.67
2022-10-17T18:06:02.448Z,31.80
2022-10-17T18:08:31.620Z,39.63
2022-10-17T18:11:00.835Z,46.23
2022-10-17T18:13:30.097Z,35.93
2022-10-17T18:16:01.975Z,33.90
2022-10-17T18:18:32.012Z,39.43
2022-10-17T18:21:04.575Z,34.80
2022-10-17T18:23:33.704Z,37.60
2022-10-17T18:26:03.038Z,36.73
2022-10-17T18:28:34.358Z,30.57
2022-10-17T18:31:08.040Z,34.37
2022-10-17T18:33:37.572Z,30.17
2022-10-17T18:36:11.350Z,32.57
2022-10-17T18:38:40.291Z,31.63
2022-10-17T18:41:12.227Z,32.93
2022-10-17T18:43:44.169Z,34.23
2022-10-17T18:46:19.322Z,34.00
2022-10-17T18:48:50.941Z,32.00
2022-10-17T18:51:24.388Z,36.73
2022-10-17T18:53:56.531Z,33.83
2022-10-17T18:56:27.084Z,36.63
2022-10-17T18:58:56.901Z,34.27
2022-10-17T19:01:28.813Z,32.00
2022-10-17T19:04:00.953Z,34.43
2022-10-17T19:06:33.439Z,32.87
2022-10-17T19:09:06.668Z,32.40
2022-10-17T19:11:37.421Z,37.50
2022-10-17T19:14:13.548Z,30.93
2022-10-17T19:16:48.281Z,31.50
2022-10-17T19:19:19.778Z,32.43
2022-10-17T19:21:50.608Z,36.43
2022-10-17T19:24:22.211Z,35.47
2022-10-17T19:26:53.755Z,37.80
2022-10-17T19:29:25.739Z,31.67
2022-10-17T19:34:28.946Z,32.97
2022-10-17T19:36:59.191Z,30.93
2022-10-17T19:39:28.203Z,32.17
2022-10-17T19:41:57.038Z,32.33
2022-10-17T19:44:25.879Z,31.67
2022-10-17T19:46:54.602Z,30.93
2022-10-17T19:49:23.126Z,33.67
2022-10-17T19:51:51.890Z,30.77
2022-10-17T19:54:21.833Z,31.07
2022-10-17T19:56:50.514Z,36.67
2022-10-17T19:59:19.478Z,31.03
2022-10-17T20:01:48.405Z,28.43
2022-10-17T20:04:17.067Z,34.40
2022-10-17T20:06:45.702Z,30.20
2022-10-17T20:09:16.976Z,30.03
2022-10-17T20:11:50.721Z,29.83
2022-10-17T20:14:19.491Z,30.47
2022-10-17T20:16:52.972Z,31.77
2022-10-17T20:19:21.927Z,35.73
2022-10-17T20:21:50.649Z,35.30
2022-10-17T20:24:19.395Z,29.20
2022-10-17T20:26:49.494Z,31.57
2022-10-17T20:29:21.057Z,30.70
2022-10-17T20:31:50.271Z,32.50
2022-10-17T20:34:20.854Z,30.90
2022-10-17T20:36:50.953Z,27.63
2022-10-17T20:39:22.072Z,26.77
2022-10-17T20:41:52.152Z,31.17
2022-10-17T20:44:20.956Z,29.47
2022-10-17T20:47:01.100Z,28.53
2022-10-17T20:49:31.718Z,28.93
2022-10-17T20:52:01.647Z,30.10
2022-10-17T20:54:30.433Z,29.30
2022-10-17T20:57:03.888Z,31.87
2022-10-17T20:59:35.311Z,27.27
2022-10-17T21:02:04.193Z,25.33
2022-10-17T21:04:46.350Z,31.30
2022-10-17T21:07:15.717Z,26.83
2022-10-17T21:09:45.494Z,30.03
2022-10-17T21:12:25.834Z,30.33
2022-10-17T21:15:00.192Z,29.93
2022-10-17T21:17:28.959Z,26.73
2022-10-17T21:19:57.705Z,30.20
2022-10-17T21:22:26.486Z,26.57
2022-10-17T21:24:55.192Z,27.80
2022-10-17T21:27:25.202Z,26.90
2022-10-17T21:29:53.874Z,28.97
2022-10-17T21:32:40.089Z,26.77
2022-10-17T21:35:11.438Z,27.83
2022-10-17T21:37:40.077Z,28.67
2022-10-17T21:40:13.489Z,26.73
2022-10-17T21:42:43.617Z,27.60
2022-10-17T21:45:15.809Z,28.53
2022-10-17T21:48:18.543Z,30.70
2022-10-17T21:50:37.462Z,27.30
2022-10-17T21:53:06.011Z,29.10
2022-10-17T21:55:37.158Z,27.20
2022-10-17T21:58:07.214Z,30.33
2022-10-17T22:00:35.805Z,29.40
2022-10-17T22:03:05.958Z,32.17
2022-10-17T22:05:34.633Z,29.00
2022-10-17T22:08:03.276Z,30.37
2022-10-17T22:10:32.125Z,27.53
2022-10-17T22:13:00.741Z,27.63
2022-10-17T22:15:31.428Z,26.40
2022-10-17T22:18:00.091Z,33.50
2022-10-17T22:20:28.787Z,24.93
2022-10-17T22:22:57.352Z,26.50
2022-10-17T22:25:26.433Z,32.53
2022-10-17T22:27:55.161Z,25.97
2022-10-17T22:30:23.802Z,26.30
2022-10-17T22:32:53.815Z,24.70
2022-10-17T22:35:22.445Z,24.70
2022-10-17T22:37:51.024Z,27.27
2022-10-17T22:40:19.743Z,28.93
2022-10-17T22:42:48.280Z,28.13
2022-10-17T22:45:16.989Z,27.50
2022-10-17T22:47:45.562Z,27.03
2022-10-17T22:50:15.656Z,24.87
2022-10-17T22:52:44.228Z,21.07
2022-10-17T22:55:12.967Z,25.30
2022-10-17T22:57:42.221Z,25.97
2022-10-17T23:00:13.779Z,23.53
2022-10-17T23:02:42.588Z,22.03
2022-10-17T23:05:12.281Z,29.80
2022-10-17T23:07:42.334Z,23.47
2022-10-17T23:10:11.746Z,22.87
2022-10-17T23:12:40.348Z,23.70
2022-10-17T23:15:10.593Z,23.50
2022-10-17T23:17:39.233Z,20.73
2022-10-17T23:20:09.404Z,21.23
2022-10-17T23:22:37.986Z,21.00
2022-10-17T23:25:09.532Z,19.57
2022-10-17T23:27:38.330Z,26.70
2022-10-17T23:30:08.548Z,17.83
2022-10-17T23:32:37.226Z,20.80
2022-10-17T23:35:06.764Z,15.97
2022-10-17T23:37:35.874Z,20.67
2022-10-17T23:40:05.973Z,22.70
2022-10-17T23:42:35.963Z,20.90
2022-10-17T23:45:05.302Z,20.17
2022-10-17T23:47:34.085Z,18.80
2022-10-17T23:50:02.959Z,21.80
2022-10-17T23:52:31.692Z,18.43
2022-10-17T23:55:00.406Z,18.17
2022-10-17T23:57:29.380Z,17.27
2022-10-17T23:59:59.626Z,17.70
